Wendel, California
Current Conditions -  °F | °C
As of 12:55 AM on Saturday 22 Nov 2014 (Local Time) from KRTS Reporting Station
Overcast Overcast  
Wind Chill: 42°   Ceiling: 7000
Heat Index: 48°   Visibility: 10mi
Dew Point: 36°   Wind: 17mph
Humidity: 62%   Direction: 250°WSW
Pressure: 30.03"   Gusts: 23mph
Location:  40.35°N, 120.24°W
Report Text: KRTS 220855Z AUTO 25015G20KT 10SM BKN070 OVC090 09/02 A3003 RMK AO2
Loading
Personal Weather Stations






























Interactive Weather Map New forecast layout! Learn more

10-Day Weather Forecast

Advertisements
Track Severe Weather on mobile